createdAt,value
2023-04-01T00:00:32.600Z,2.60
2023-04-01T00:03:50.766Z,2.70
2023-04-01T00:06:54.003Z,3.10
2023-04-01T00:09:57.077Z,3.80
2023-04-01T00:13:00.221Z,3.30
2023-04-01T00:16:09.964Z,3.40
2023-04-01T00:19:23.360Z,2.70
2023-04-01T00:22:27.281Z,3.00
2023-04-01T00:25:30.866Z,2.80
2023-04-01T00:28:36.054Z,2.80
2023-04-01T00:31:39.242Z,3.00
2023-04-01T00:34:42.433Z,2.60
2023-04-01T00:37:45.456Z,2.60
2023-04-01T00:40:48.550Z,2.80
2023-04-01T00:43:52.517Z,3.10
2023-04-01T00:46:57.575Z,3.00
2023-04-01T00:50:00.868Z,3.20
2023-04-01T00:53:04.455Z,3.30
2023-04-01T00:56:13.640Z,3.80
2023-04-01T00:59:24.291Z,4.20
2023-04-01T01:02:27.621Z,3.60
2023-04-01T01:05:54.440Z,3.40
2023-04-01T01:08:57.415Z,3.70
2023-04-01T01:12:07.214Z,4.00
2023-04-01T01:15:24.218Z,3.80
2023-04-01T01:19:00.756Z,3.90
2023-04-01T01:22:23.067Z,3.50
2023-04-01T01:25:47.873Z,3.30
2023-04-01T01:29:21.767Z,3.60
2023-04-01T01:33:02.066Z,4.30
2023-04-01T01:36:12.561Z,4.30
2023-04-01T01:39:17.064Z,4.10
2023-04-01T01:42:21.762Z,4.00
2023-04-01T01:45:27.414Z,3.80
2023-04-01T01:48:32.142Z,3.40
2023-04-01T01:51:35.403Z,3.50
2023-04-01T01:54:54.816Z,3.00
2023-04-01T01:58:05.890Z,2.60
2023-04-01T02:01:31.533Z,2.90
2023-04-01T02:04:42.619Z,3.20
2023-04-01T02:07:54.984Z,2.90
2023-04-01T02:11:06.679Z,3.10
2023-04-01T02:15:00.648Z,3.20
2023-04-01T02:18:05.193Z,3.00
2023-04-01T02:21:09.911Z,3.20
2023-04-01T02:24:16.451Z,2.70
2023-04-01T02:27:20.908Z,3.40
2023-04-01T02:30:26.603Z,3.70
2023-04-01T02:33:31.888Z,3.80
2023-04-01T02:36:37.293Z,3.90
2023-04-01T02:39:41.340Z,3.50
2023-04-01T02:42:45.000Z,3.50
2023-04-01T02:45:48.078Z,3.50
2023-04-01T02:48:51.295Z,3.40
2023-04-01T02:51:54.412Z,3.30
2023-04-01T02:54:58.492Z,3.30
2023-04-01T02:58:02.217Z,3.50
2023-04-01T03:01:05.932Z,3.30
2023-04-01T03:04:09.124Z,3.60
2023-04-01T03:07:12.536Z,3.10
2023-04-01T03:10:16.227Z,3.20
2023-04-01T03:13:19.306Z,3.10
2023-04-01T03:16:22.590Z,3.20
2023-04-01T03:19:26.582Z,3.10
2023-04-01T03:22:29.736Z,3.50
2023-04-01T03:25:33.036Z,3.60
2023-04-01T03:28:36.935Z,3.50
2023-04-01T03:31:40.059Z,3.20
2023-04-01T03:34:43.275Z,3.50
2023-04-01T03:37:46.502Z,3.50
2023-04-01T03:40:49.660Z,3.10
2023-04-01T03:43:54.452Z,3.50
2023-04-01T03:46:57.569Z,3.40
2023-04-01T03:50:00.861Z,3.40
2023-04-01T03:53:04.004Z,2.90
2023-04-01T03:56:08.487Z,3.20
2023-04-01T03:59:12.190Z,3.10
2023-04-01T04:02:15.391Z,3.40
2023-04-01T04:05:18.953Z,3.80
2023-04-01T04:08:22.633Z,3.80
2023-04-01T04:11:26.801Z,3.90
2023-04-01T04:14:30.025Z,3.70
2023-04-01T04:17:33.483Z,4.10
2023-04-01T04:20:36.753Z,4.60
2023-04-01T04:23:40.404Z,4.10
2023-04-01T04:26:43.585Z,4.10
2023-04-01T04:29:46.745Z,4.30
2023-04-01T04:32:49.813Z,4.00
2023-04-01T04:35:56.787Z,4.20
2023-04-01T04:39:02.985Z,4.20
2023-04-01T04:42:06.848Z,4.30
2023-04-01T04:45:10.475Z,3.80
2023-04-01T04:48:20.038Z,4.50
2023-04-01T04:51:23.893Z,4.40
2023-04-01T04:54:27.039Z,4.70
2023-04-01T04:57:32.779Z,4.40
2023-04-01T05:00:36.404Z,4.70
2023-04-01T05:03:43.320Z,4.30
2023-04-01T05:06:46.549Z,4.40
2023-04-01T05:09:50.129Z,5.10
2023-04-01T05:12:53.282Z,5.30
2023-04-01T05:15:58.654Z,6.90
2023-04-01T05:19:02.251Z,5.10
2023-04-01T05:22:06.612Z,4.80
2023-04-01T05:25:10.598Z,5.70
2023-04-01T05:28:14.233Z,5.60
2023-04-01T05:31:18.472Z,5.70
2023-04-01T05:34:23.403Z,5.00
2023-04-01T05:37:26.670Z,4.10
2023-04-01T05:40:31.282Z,4.50
2023-04-01T05:43:37.640Z,3.90
2023-04-01T05:46:50.352Z,4.50
2023-04-01T05:49:58.464Z,4.40
2023-04-01T05:53:02.483Z,5.00
2023-04-01T05:56:05.974Z,4.70
2023-04-01T05:59:12.920Z,4.10
2023-04-01T06:02:18.640Z,4.10
2023-04-01T06:05:25.048Z,4.30
2023-04-01T06:08:29.280Z,4.60
2023-04-01T06:11:44.084Z,4.00
2023-04-01T06:14:53.137Z,4.60
2023-04-01T06:18:11.465Z,4.90
2023-04-01T06:21:32.184Z,4.70
2023-04-01T06:25:14.519Z,4.60
2023-04-01T06:28:38.984Z,5.00
2023-04-01T06:32:02.758Z,4.20
2023-04-01T06:35:12.316Z,4.40
2023-04-01T06:38:30.360Z,4.20
2023-04-01T06:42:03.219Z,4.50
2023-04-01T06:45:36.688Z,5.30
2023-04-01T06:49:35.744Z,5.00
2023-04-01T06:53:13.790Z,4.90
2023-04-01T06:56:38.300Z,5.20
2023-04-01T06:59:47.659Z,5.10
2023-04-01T07:03:22.753Z,5.40
2023-04-01T07:06:55.249Z,5.10
2023-04-01T07:13:14.835Z,5.20
2023-04-01T07:16:49.429Z,5.30
2023-04-01T07:20:19.367Z,6.00
2023-04-01T07:24:00.270Z,12.00
2023-04-01T07:27:16.681Z,6.00
2023-04-01T07:30:23.860Z,5.30
2023-04-01T07:33:48.203Z,5.10
2023-04-01T07:37:16.367Z,5.30
2023-04-01T07:40:25.422Z,5.50
2023-04-01T07:43:54.727Z,4.50
2023-04-01T07:47:22.886Z,4.80
2023-04-01T07:50:32.545Z,4.00
2023-04-01T07:53:55.916Z,4.70
2023-04-01T07:57:29.881Z,5.00
2023-04-01T08:01:08.154Z,4.70
2023-04-01T08:04:33.039Z,4.80
2023-04-01T08:11:17.759Z,4.00
2023-04-01T08:15:11.669Z,4.30
2023-04-01T08:18:32.237Z,4.90
2023-04-01T08:21:48.388Z,4.60
2023-04-01T08:24:55.777Z,4.70
2023-04-01T08:28:24.939Z,9.10
2023-04-01T08:31:52.233Z,4.70
2023-04-01T08:35:08.712Z,4.60
2023-04-01T08:38:26.562Z,4.80
2023-04-01T08:41:39.131Z,5.90
2023-04-01T08:45:30.179Z,5.60
2023-04-01T08:48:54.818Z,5.40
2023-04-01T08:52:04.038Z,5.30
2023-04-01T08:55:54.269Z,5.10
2023-04-01T08:59:28.066Z,4.60
2023-04-01T09:02:31.852Z,5.10
2023-04-01T09:05:55.277Z,5.10
2023-04-01T09:09:15.347Z,5.30
2023-04-01T09:12:38.181Z,4.70
2023-04-01T09:15:49.892Z,4.50
2023-04-01T09:22:06.609Z,4.70
2023-04-01T09:25:15.975Z,5.60
2023-04-01T09:28:19.059Z,5.30
2023-04-01T09:31:49.158Z,5.70
2023-04-01T09:35:26.217Z,5.00
2023-04-01T09:39:11.534Z,5.30
2023-04-01T09:42:14.700Z,5.00
2023-04-01T09:45:53.144Z,5.90
2023-04-01T09:49:17.414Z,5.30
2023-04-01T09:52:59.392Z,4.90
2023-04-01T09:56:34.572Z,4.40
2023-04-01T10:00:06.079Z,4.10
2023-04-01T10:03:52.849Z,4.80
2023-04-01T10:07:11.198Z,4.60
2023-04-01T10:10:47.793Z,4.10
2023-04-01T10:14:09.194Z,3.70
2023-04-01T10:17:26.704Z,4.30
2023-04-01T10:20:42.384Z,4.80
2023-04-01T10:24:04.824Z,4.90
2023-04-01T10:27:38.379Z,5.20
2023-04-01T10:30:53.441Z,4.50
2023-04-01T10:34:30.372Z,4.20
2023-04-01T10:38:09.193Z,3.60
2023-04-01T10:41:20.005Z,3.10
2023-04-01T10:45:21.169Z,2.60
2023-04-01T10:48:45.502Z,2.50
2023-04-01T10:51:52.828Z,2.80
2023-04-01T10:55:29.647Z,3.20
2023-04-01T10:59:37.812Z,2.50
2023-04-01T11:03:22.500Z,2.40
2023-04-01T11:06:40.312Z,3.20
2023-04-01T11:10:22.317Z,3.00
2023-04-01T11:14:04.896Z,4.20
2023-04-01T11:17:24.024Z,3.20
2023-04-01T11:20:34.538Z,2.50
2023-04-01T11:24:05.166Z,2.90
2023-04-01T11:27:24.990Z,2.70
2023-04-01T11:30:59.788Z,2.70
2023-04-01T11:34:33.333Z,2.90
2023-04-01T11:37:46.511Z,3.50
2023-04-01T11:41:23.827Z,4.20
2023-04-01T11:44:31.571Z,5.20
2023-04-01T11:47:55.075Z,3.90
2023-04-01T11:51:13.576Z,3.50
2023-04-01T11:54:59.881Z,3.10
2023-04-01T11:58:24.354Z,2.80
2023-04-01T12:01:45.505Z,2.10
2023-04-01T12:04:49.837Z,2.30
2023-04-01T12:07:59.143Z,2.10
2023-04-01T12:11:33.770Z,2.40
2023-04-01T12:14:50.372Z,2.40
2023-04-01T12:17:53.721Z,2.70
2023-04-01T12:21:15.620Z,3.00
2023-04-01T12:24:51.242Z,3.40
2023-04-01T12:28:25.507Z,3.30
2023-04-01T12:31:37.910Z,3.50
2023-04-01T12:34:47.060Z,3.20
2023-04-01T12:38:22.941Z,3.10
2023-04-01T12:42:07.708Z,3.30
2023-04-01T12:45:30.537Z,3.60
2023-04-01T12:48:45.753Z,3.40
2023-04-01T12:52:02.269Z,5.80
2023-04-01T12:55:29.517Z,7.70
2023-04-01T12:58:51.305Z,5.60
2023-04-01T13:02:00.729Z,7.10
2023-04-01T13:05:54.034Z,5.60
2023-04-01T13:09:00.012Z,5.80
2023-04-01T13:12:11.139Z,5.40
2023-04-01T13:15:23.380Z,7.30
2023-04-01T13:18:39.550Z,6.30
2023-04-01T13:21:45.064Z,4.80
2023-04-01T13:24:59.751Z,4.70
2023-04-01T13:28:09.243Z,4.90
2023-04-01T13:31:27.136Z,4.60
2023-04-01T13:34:51.134Z,4.20
2023-04-01T13:38:37.577Z,6.20
2023-04-01T13:42:12.503Z,2.40
2023-04-01T13:45:21.550Z,1.60
2023-04-01T13:48:38.854Z,1.30
2023-04-01T13:52:07.935Z,1.80
2023-04-01T13:55:29.251Z,1.60
2023-04-01T13:58:54.263Z,2.50
2023-04-01T14:02:41.487Z,2.80
2023-04-01T14:05:45.462Z,2.80
2023-04-01T14:09:03.987Z,2.70
2023-04-01T14:12:14.722Z,4.40
2023-04-01T14:15:36.762Z,6.60
2023-04-01T14:19:13.000Z,6.00
2023-04-01T14:22:45.509Z,5.00
2023-04-01T14:26:35.202Z,3.70
2023-04-01T14:29:46.006Z,3.20
2023-04-01T14:33:04.376Z,3.90
2023-04-01T14:36:20.143Z,3.80
2023-04-01T14:39:59.323Z,4.70
2023-04-01T14:43:02.474Z,3.50
2023-04-01T14:46:23.717Z,3.70
2023-04-01T14:49:44.373Z,4.30
2023-04-01T14:52:58.072Z,4.70
2023-04-01T14:56:03.924Z,4.70
2023-04-01T14:59:23.252Z,5.60
2023-04-01T15:02:53.769Z,4.80
2023-04-01T15:06:30.178Z,5.40
2023-04-01T15:09:40.020Z,4.50
2023-04-01T15:12:50.886Z,4.40
2023-04-01T15:16:10.967Z,5.20
2023-04-01T15:19:14.194Z,5.40
2023-04-01T15:23:01.669Z,4.80
2023-04-01T15:26:23.308Z,5.90
2023-04-01T15:29:29.690Z,5.70
2023-04-01T15:32:51.464Z,4.50
2023-04-01T15:36:01.917Z,5.10
2023-04-01T15:39:14.310Z,5.00
2023-04-01T15:45:43.773Z,5.40
2023-04-01T15:49:04.243Z,5.50
2023-04-01T15:52:19.002Z,5.70
2023-04-01T15:55:28.010Z,7.00
2023-04-01T15:58:48.854Z,6.60
2023-04-01T16:02:12.319Z,6.90
2023-04-01T16:05:24.832Z,8.20
2023-04-01T16:12:14.717Z,8.40
2023-04-01T16:15:18.016Z,8.80
2023-04-01T16:19:06.965Z,9.20
2023-04-01T16:22:30.178Z,8.60
2023-04-01T16:25:52.932Z,9.10
2023-04-01T16:29:17.291Z,7.60
2023-04-01T16:32:45.851Z,6.80
2023-04-01T16:35:59.392Z,6.40
2023-04-01T16:39:30.240Z,6.70
2023-04-01T16:42:50.553Z,8.00
2023-04-01T16:46:15.643Z,6.90
2023-04-01T16:49:56.011Z,6.80
2023-04-01T16:53:21.207Z,7.10
2023-04-01T17:00:03.307Z,8.20
2023-04-01T17:03:09.182Z,8.20
2023-04-01T17:06:26.305Z,9.80
2023-04-01T17:10:03.322Z,9.70
2023-04-01T17:13:09.551Z,9.20
2023-04-01T17:16:27.632Z,10.90
2023-04-01T17:20:03.540Z,12.40
2023-04-01T17:23:25.891Z,12.10
2023-04-01T17:26:47.805Z,8.50
2023-04-01T17:30:02.545Z,8.30
2023-04-01T17:33:56.181Z,7.70
2023-04-01T17:37:17.793Z,3.10
2023-04-01T17:40:38.964Z,2.30
2023-04-01T17:44:20.236Z,1.90
2023-04-01T17:47:47.632Z,1.60
2023-04-01T17:50:59.854Z,2.50
2023-04-01T17:54:18.185Z,3.00
2023-04-01T17:57:33.366Z,4.10
2023-04-01T18:01:02.652Z,5.50
2023-04-01T18:04:20.881Z,6.40
2023-04-01T18:07:32.042Z,4.80
2023-04-01T18:10:53.499Z,4.00
2023-04-01T18:13:59.124Z,4.30
2023-04-01T18:17:27.659Z,4.70
2023-04-01T18:21:02.652Z,6.10
2023-04-01T18:24:33.379Z,7.80
2023-04-01T18:27:43.778Z,6.50
2023-04-01T18:30:58.973Z,5.60
2023-04-01T18:34:32.227Z,6.20
2023-04-01T18:37:43.226Z,6.50
2023-04-01T18:41:35.631Z,10.50
2023-04-01T18:45:00.560Z,10.10
2023-04-01T18:48:29.555Z,12.00
2023-04-01T18:51:32.570Z,16.60
2023-04-01T18:54:48.594Z,15.90
2023-04-01T18:57:55.761Z,15.80
2023-04-01T19:01:08.015Z,10.80
2023-04-01T19:04:21.380Z,9.50
2023-04-01T19:07:45.367Z,7.70
2023-04-01T19:11:18.739Z,9.90
2023-04-01T19:14:54.556Z,10.70
2023-04-01T19:18:42.067Z,10.00
2023-04-01T19:21:57.223Z,9.10
2023-04-01T19:25:24.533Z,13.10
2023-04-01T19:28:55.793Z,15.30
2023-04-01T19:32:27.194Z,12.50
2023-04-01T19:35:32.850Z,9.20
2023-04-01T19:38:44.508Z,9.20
2023-04-01T19:42:11.347Z,11.50
2023-04-01T19:45:34.104Z,10.50
2023-04-01T19:48:52.797Z,10.90
2023-04-01T19:52:13.412Z,9.60
2023-04-01T19:55:28.505Z,9.70
2023-04-01T19:58:51.511Z,9.60
2023-04-01T20:02:00.962Z,9.60
2023-04-01T20:05:28.178Z,10.10
2023-04-01T20:09:04.734Z,11.70
2023-04-01T20:12:18.009Z,9.50
2023-04-01T20:15:22.984Z,10.10
2023-04-01T20:18:46.450Z,8.70
2023-04-01T20:21:51.488Z,9.50
2023-04-01T20:25:00.517Z,10.00
2023-04-01T20:28:21.619Z,10.20
2023-04-01T20:31:42.238Z,10.10
2023-04-01T20:34:55.213Z,11.30
2023-04-01T20:38:10.931Z,9.80
2023-04-01T20:41:47.447Z,11.00
2023-04-01T20:45:27.701Z,10.70
2023-04-01T20:48:53.413Z,11.00
2023-04-01T20:52:18.072Z,11.90
2023-04-01T20:55:33.351Z,13.30
2023-04-01T20:58:55.238Z,15.20
2023-04-01T21:02:19.771Z,10.60
2023-04-01T21:05:29.622Z,10.20
2023-04-01T21:09:04.312Z,10.20
2023-04-01T21:12:16.464Z,10.50
2023-04-01T21:15:33.158Z,11.90
2023-04-01T21:18:56.296Z,11.50
2023-04-01T21:25:56.198Z,10.30
2023-04-01T21:29:38.217Z,10.50
2023-04-01T21:33:01.586Z,11.10
2023-04-01T21:36:28.292Z,11.30
2023-04-01T21:40:00.468Z,11.10
2023-04-01T21:43:27.348Z,11.80
2023-04-01T21:46:39.704Z,13.70
2023-04-01T21:53:22.388Z,13.80
2023-04-01T21:56:44.446Z,14.00
2023-04-01T22:00:02.485Z,14.00
2023-04-01T22:03:36.423Z,13.50
2023-04-01T22:06:47.650Z,14.30
2023-04-01T22:10:31.863Z,15.00
2023-04-01T22:14:04.402Z,13.90
2023-04-01T22:17:14.755Z,14.20
2023-04-01T22:20:24.230Z,14.60
2023-04-01T22:23:47.716Z,19.90
2023-04-01T22:27:17.120Z,16.00
2023-04-01T22:30:30.552Z,17.20
2023-04-01T22:33:34.106Z,18.50
2023-04-01T22:37:00.170Z,24.50
2023-04-01T22:40:21.349Z,24.00
2023-04-01T22:43:44.289Z,22.50
2023-04-01T22:47:03.340Z,18.90
2023-04-01T22:50:12.021Z,18.80
2023-04-01T22:53:42.549Z,21.30
2023-04-01T22:57:16.953Z,18.50
2023-04-01T23:00:41.865Z,17.90
2023-04-01T23:03:47.799Z,17.60
2023-04-01T23:06:57.769Z,19.00
2023-04-01T23:10:04.982Z,18.50
2023-04-01T23:13:17.686Z,17.50
2023-04-01T23:16:31.751Z,21.20
2023-04-01T23:19:44.583Z,21.60
2023-04-01T23:23:01.592Z,21.60
2023-04-01T23:26:13.549Z,22.80
2023-04-01T23:29:19.541Z,20.80
2023-04-01T23:32:27.412Z,19.00
2023-04-01T23:35:31.277Z,21.80
2023-04-01T23:38:42.786Z,23.30
2023-04-01T23:41:46.696Z,22.80
2023-04-01T23:44:52.632Z,24.00
2023-04-01T23:47:55.728Z,25.30
2023-04-01T23:50:59.980Z,23.90
2023-04-01T23:54:14.311Z,23.70
2023-04-01T23:57:22.950Z,23.80
